Time;durP1;ratioP1;P1;durP2;ratioP2;P2;SDS_P1;SDS_P2;PMS_P1;PMS_P2;Temp;Humidity;BMP_temperature;BMP_pressure;BME280_temperature;BME280_humidity;BME280_pressure;Samples;Min_cycle;Max_cycle;Signal;HPM_P1;HPM_P2
2022/11/05 00:10:29;;;;;;;6.88;5.05;;;;;;;11.64;60.45;101431.91;4955824;28;112859;-69
2022/11/05 00:18:30;;;;;;;7.50;4.72;;;;;;;11.65;60.43;101433.66;4966295;28;114756;-69
2022/11/05 00:20:57;;;;;;;7.25;4.35;;;;;;;11.64;60.52;101431.91;4961499;28;113826;-69
2022/11/05 00:26:11;;;;;;;9.07;4.28;;;;;;;11.65;60.67;101434.53;4958428;28;123874;-69
2022/11/05 00:28:42;;;;;;;7.88;4.43;;;;;;;11.68;60.72;101433.56;4961137;28;114208;-69
2022/11/05 00:31:12;;;;;;;6.85;4.28;;;;;;;11.69;60.61;101440.56;4958895;28;113824;-69
2022/11/05 00:33:41;;;;;;;9.48;4.50;;;;;;;11.71;60.80;101438.72;4944249;28;123613;-70
2022/11/05 00:36:09;;;;;;;6.97;4.18;;;;;;;11.72;60.79;101437.81;4966652;28;122636;-69
2022/11/05 00:38:36;;;;;;;8.73;4.28;;;;;;;11.73;60.79;101446.63;4964792;28;115170;-69
2022/11/05 00:41:03;;;;;;;7.28;4.20;;;;;;;11.75;60.66;101450.94;4962478;28;115420;-69
2022/11/05 00:46:16;;;;;;;6.47;4.20;;;;;;;11.73;60.47;101458.09;4968197;28;125119;-70
2022/11/05 00:51:29;;;;;;;8.25;3.72;;;;;;;11.71;60.53;101462.59;4956997;28;114289;-69
2022/11/05 00:53:56;;;;;;;8.00;3.90;;;;;;;11.68;60.53;101460.09;4962553;28;123842;-69
2022/11/05 00:56:23;;;;;;;6.10;3.75;;;;;;;11.67;60.56;101453.03;4964864;28;124184;-70
2022/11/05 00:58:50;;;;;;;7.00;3.67;;;;;;;11.66;60.64;101453.97;4967985;28;114125;-69
2022/11/05 01:01:17;;;;;;;6.88;4.13;;;;;;;11.65;60.48;101457.53;4961715;28;113655;-69
2022/11/05 01:03:44;;;;;;;7.65;3.85;;;;;;;11.63;60.49;101456.75;4965027;28;125210;-69
2022/11/05 01:06:18;;;;;;;7.68;3.95;;;;;;;11.63;60.62;101459.41;4960297;28;124145;-70
2022/11/05 01:08:45;;;;;;;8.90;4.20;;;;;;;11.62;60.63;101460.31;4966431;28;114055;-69
2022/11/05 01:11:35;;;;;;;7.03;4.32;;;;;;;11.60;60.41;101472.78;4964792;28;113747;-69
2022/11/05 01:14:06;;;;;;;6.30;4.03;;;;;;;11.57;60.53;101478.22;4966230;28;126783;-69
2022/11/05 01:16:33;;;;;;;9.40;4.38;;;;;;;11.54;60.29;101484.47;4964112;28;123734;-70
2022/11/05 01:19:02;;;;;;;8.32;4.50;;;;;;;11.50;60.46;101483.72;4959546;28;113992;-70
2022/11/05 01:21:30;;;;;;;6.88;4.35;;;;;;;11.47;60.33;101489.19;4962267;28;113970;-69
2022/11/05 01:23:57;;;;;;;7.28;4.38;;;;;;;11.45;60.38;101496.34;4965493;28;123826;-69
2022/11/05 01:26:25;;;;;;;9.20;4.00;;;;;;;11.41;60.35;101500.00;4955428;28;123080;-70
2022/11/05 01:28:53;;;;;;;6.95;4.63;;;;;;;11.38;60.11;101500.13;4965139;28;115238;-70
2022/11/05 01:31:22;;;;;;;8.98;4.10;;;;;;;11.34;60.41;101503.84;4968136;28;114584;-70
2022/11/05 01:33:49;;;;;;;6.22;4.20;;;;;;;11.29;60.23;101506.63;4962838;28;123924;-69
2022/11/05 01:36:17;;;;;;;7.90;4.15;;;;;;;11.25;60.03;101509.47;4963778;28;123757;-70
2022/11/05 01:38:44;;;;;;;6.07;4.28;;;;;;;11.22;59.98;101514.88;4967111;28;114823;-69
2022/11/05 01:41:11;;;;;;;8.93;4.30;;;;;;;11.16;60.05;101512.47;4964540;28;113787;-70
2022/11/05 01:43:53;;;;;;;6.72;4.22;;;;;;;11.10;60.06;101519.72;4961364;28;123656;-69
2022/11/05 01:46:37;;;;;;;6.88;4.10;;;;;;;11.06;60.06;101514.59;4979442;28;123446;-70
2022/11/05 01:49:30;;;;;;;8.60;4.38;;;;;;;11.01;60.26;101512.09;4961261;28;114841;-69
2022/11/05 01:52:01;;;;;;;10.80;4.00;;;;;;;10.98;60.10;101517.53;4961022;28;113747;-70
2022/11/05 01:54:31;;;;;;;6.78;3.70;;;;;;;10.94;60.40;101523.81;4953902;28;124010;-70
2022/11/05 01:57:03;;;;;;;7.00;3.70;;;;;;;10.90;60.53;101519.56;4964069;28;124184;-69
2022/11/05 01:59:42;;;;;;;8.30;4.05;;;;;;;10.88;60.17;101526.69;4961846;28;114333;-69
2022/11/05 02:02:09;;;;;;;9.07;3.88;;;;;;;10.86;60.35;101525.91;4962223;28;114061;-70
2022/11/05 02:04:40;;;;;;;7.45;3.92;;;;;;;10.81;60.38;101525.19;4964447;28;123944;-70
2022/11/05 02:07:09;;;;;;;8.35;4.03;;;;;;;10.78;60.55;101525.31;4958657;28;124624;-70
2022/11/05 02:09:50;;;;;;;9.32;4.03;;;;;;;10.76;60.75;101521.84;4962834;28;114751;-69
2022/11/05 02:12:19;;;;;;;7.78;4.28;;;;;;;10.76;60.58;101519.19;4978316;28;112746;-69
2022/11/05 02:14:46;;;;;;;8.98;4.20;;;;;;;10.74;60.76;101515.72;4951855;28;122812;-69
2022/11/05 02:17:21;;;;;;;6.30;4.00;;;;;;;10.71;60.82;101509.59;4963984;28;124458;-70
2022/11/05 02:20:08;;;;;;;5.93;3.92;;;;;;;10.70;60.81;101510.53;4963217;28;115129;-70
2022/11/05 02:22:53;;;;;;;9.60;3.97;;;;;;;10.69;60.87;101510.59;4963907;28;114984;-70
2022/11/05 02:25:56;;;;;;;7.32;3.65;;;;;;;10.65;60.74;101509.81;4957527;28;124693;-69
2022/11/05 02:28:56;;;;;;;5.97;3.80;;;;;;;10.64;60.83;101502.81;4961562;28;123835;-69
2022/11/05 02:31:35;;;;;;;5.50;3.63;;;;;;;10.62;60.84;101504.63;4960358;28;115070;-70
2022/11/05 02:34:32;;;;;;;6.38;3.47;;;;;;;10.61;60.93;101500.25;4976434;28;113407;-70
2022/11/05 02:37:33;;;;;;;5.82;3.33;;;;;;;10.59;60.96;101499.44;4979015;28;123870;-69
2022/11/05 02:40:12;;;;;;;9.00;3.80;;;;;;;10.58;60.76;101497.69;4960279;28;122725;-69
2022/11/05 02:42:55;;;;;;;6.88;3.60;;;;;;;10.58;61.07;101492.41;4962973;28;114636;-69
2022/11/05 02:45:25;;;;;;;8.18;4.07;;;;;;;10.57;60.96;101496.00;4961670;28;113910;-69
2022/11/05 02:48:20;;;;;;;9.40;3.88;;;;;;;10.55;61.20;101486.34;4973697;28;125100;-69
2022/11/05 02:50:57;;;;;;;6.35;3.47;;;;;;;10.52;61.23;101489.97;4962087;28;124124;-70
2022/11/05 02:53:50;;;;;;;8.18;3.78;;;;;;;10.52;61.09;101492.63;4965293;28;115035;-70
2022/11/05 02:56:24;;;;;;;5.95;3.83;;;;;;;10.50;61.25;101494.47;4960194;28;114309;-69
2022/11/05 02:58:51;;;;;;;7.68;3.55;;;;;;;10.48;61.23;101488.34;4963278;28;124686;-69
2022/11/05 03:01:18;;;;;;;6.50;4.00;;;;;;;10.47;61.17;101489.25;4980122;28;123653;-69
2022/11/05 03:03:59;;;;;;;8.40;3.53;;;;;;;10.46;61.27;101492.84;4954803;28;114264;-69
2022/11/05 03:06:55;;;;;;;5.72;3.50;;;;;;;10.44;61.36;101494.69;4958483;28;114811;-69
2022/11/05 03:09:59;;;;;;;9.00;3.57;;;;;;;10.42;61.22;101493.88;4961699;28;124021;-69
2022/11/05 03:12:55;;;;;;;8.05;4.35;;;;;;;10.41;61.46;101494.78;4977937;28;123721;-69
2022/11/05 03:15:55;;;;;;;6.93;3.70;;;;;;;10.38;61.37;101498.41;4954689;28;114116;-69
2022/11/05 03:18:35;;;;;;;6.15;3.50;;;;;;;10.38;61.23;101494.88;4958521;28;115782;-69
2022/11/05 03:21:26;;;;;;;8.63;4.40;;;;;;;10.37;61.34;101498.44;4962558;28;124084;-70
2022/11/05 03:23:58;;;;;;;10.18;4.03;;;;;;;10.38;61.40;101500.16;4963482;28;124504;-69
2022/11/05 03:26:30;;;;;;;6.47;3.78;;;;;;;10.37;61.56;101498.44;4962904;28;113997;-69
2022/11/05 03:29:02;;;;;;;9.75;4.10;;;;;;;10.35;61.39;101506.44;4959887;28;113877;-69
2022/11/05 03:31:30;;;;;;;6.32;4.28;;;;;;;10.35;61.38;101502.94;4955754;28;125088;-70
2022/11/05 03:33:59;;;;;;;8.95;4.50;;;;;;;10.32;61.35;101499.47;4958403;28;124112;-70
2022/11/05 03:36:36;;;;;;;7.35;4.50;;;;;;;10.31;61.63;101505.69;4962521;28;114971;-69
2022/11/05 03:39:09;;;;;;;7.80;4.20;;;;;;;10.31;61.49;101505.69;4960179;28;114131;-69
2022/11/05 03:41:42;;;;;;;7.47;4.57;;;;;;;10.30;61.70;101519.84;4966840;28;124168;-70
2022/11/05 03:44:12;;;;;;;6.47;4.45;;;;;;;10.30;61.71;101519.84;4965152;28;123543;-69
2022/11/05 03:46:48;;;;;;;8.07;4.45;;;;;;;10.30;61.51;101519.84;4961384;28;114918;-69
2022/11/05 03:49:20;;;;;;;9.18;4.45;;;;;;;10.28;61.46;101516.34;4964688;28;113978;-69
2022/11/05 03:51:54;;;;;;;8.30;4.53;;;;;;;10.26;61.49;101523.44;4955434;28;123822;-70
2022/11/05 03:54:21;;;;;;;6.78;4.53;;;;;;;10.26;61.46;101519.94;4953346;28;124685;-69
2022/11/05 03:57:03;;;;;;;8.68;4.22;;;;;;;10.24;61.43;101514.69;4957631;28;114178;-69
2022/11/05 03:59:38;;;;;;;8.13;4.53;;;;;;;10.23;61.44;101518.28;4959194;28;113597;-69
2022/11/05 04:02:05;;;;;;;8.70;4.53;;;;;;;10.22;61.45;101516.53;4961638;28;124672;-70
2022/11/05 04:04:32;;;;;;;9.55;5.05;;;;;;;10.20;61.60;101513.06;4961856;28;123773;-70
2022/11/05 04:15:16;;;;;;;9.50;4.85;;;;;;;10.14;61.61;101529.16;4973557;28;123171;-69
2022/11/05 04:17:43;;;;;;;8.38;5.03;;;;;;;10.12;61.33;101531.84;4963915;28;114214;-69
2022/11/05 04:25:46;;;;;;;11.63;5.20;;;;;;;10.03;61.51;101537.44;4955272;28;123181;-69
2022/11/05 04:28:13;;;;;;;10.90;4.90;;;;;;;10.01;61.49;101538.41;4962435;28;114657;-69
2022/11/05 04:30:43;;;;;;;8.45;4.68;;;;;;;9.99;61.90;101535.81;4964339;28;113678;-69
2022/11/05 04:33:11;;;;;;;8.40;5.05;;;;;;;9.99;61.55;101537.59;4959957;28;124061;-69
2022/11/05 04:35:45;;;;;;;9.98;4.95;;;;;;;9.97;61.61;101536.78;4962803;28;124164;-70
2022/11/05 04:38:18;;;;;;;11.38;5.40;;;;;;;9.94;61.54;101543.91;4978427;28;113994;-69
2022/11/05 04:40:46;;;;;;;9.88;4.82;;;;;;;9.93;61.48;101531.56;4958910;28;115459;-69
2022/11/05 04:43:16;;;;;;;8.30;4.80;;;;;;;9.91;61.59;101537.84;4960606;28;124700;-69
2022/11/05 04:45:45;;;;;;;8.65;4.85;;;;;;;9.88;61.61;101538.78;4961888;28;123008;-69
2022/11/05 04:48:12;;;;;;;8.23;4.90;;;;;;;9.87;61.50;101534.41;4966117;28;114501;-69
2022/11/05 04:50:39;;;;;;;9.80;5.22;;;;;;;9.86;61.51;101545.91;4966919;28;113972;-69
2022/11/05 04:53:06;;;;;;;8.55;5.20;;;;;;;9.84;61.67;101547.72;4956408;28;124093;-70
2022/11/05 04:55:33;;;;;;;9.60;5.43;;;;;;;9.83;61.61;101546.00;4973148;28;123455;-69
2022/11/05 04:58:00;;;;;;;10.23;5.55;;;;;;;9.83;61.83;101551.31;4960358;28;115775;-69
2022/11/05 05:00:27;;;;;;;10.88;5.47;;;;;;;9.81;61.63;101558.41;4957418;28;115038;-69
2022/11/05 05:02:54;;;;;;;9.63;5.55;;;;;;;9.81;61.63;101547.81;4961768;28;123811;-70
2022/11/05 05:05:21;;;;;;;10.65;5.75;;;;;;;9.79;61.55;101560.22;4958107;28;124261;-69
2022/11/05 05:07:48;;;;;;;8.80;5.45;;;;;;;9.76;61.80;101555.03;4960431;28;114183;-70
2022/11/05 05:10:16;;;;;;;13.75;6.18;;;;;;;9.74;61.62;101557.72;4966092;28;114024;-69
2022/11/05 05:12:43;;;;;;;13.75;6.00;;;;;;;9.73;61.59;101563.06;4964203;28;124137;-69
2022/11/05 05:15:11;;;;;;;9.90;5.90;;;;;;;9.71;61.69;101559.59;4952274;28;123710;-69
2022/11/05 05:17:38;;;;;;;10.98;5.88;;;;;;;9.70;61.86;101565.78;4949906;28;113627;-70
2022/11/05 05:22:54;;;;;;;9.43;5.70;;;;;;;9.65;61.67;101567.72;4954128;28;124063;-70
2022/11/05 05:25:22;;;;;;;9.82;5.90;;;;;;;9.63;61.69;101574.84;4965138;28;123403;-69
2022/11/05 05:27:49;;;;;;;10.75;6.13;;;;;;;9.63;62.01;101569.56;4961152;28;113586;-69
2022/11/05 05:30:16;;;;;;;12.05;6.18;;;;;;;9.61;61.63;101571.38;4960571;28;113764;-69
2022/11/05 05:32:43;;;;;;;12.95;6.38;;;;;;;9.60;61.61;101574.91;4962846;28;124313;-70
2022/11/05 05:35:10;;;;;;;10.13;6.30;;;;;;;9.59;61.65;101573.16;4963795;28;124035;-69
2022/11/05 05:37:37;;;;;;;12.20;5.88;;;;;;;9.59;61.82;101583.75;4965131;28;114278;-70
2022/11/05 05:40:05;;;;;;;12.77;6.13;;;;;;;9.57;61.78;101580.28;4955808;28;113968;-70
2022/11/05 05:42:32;;;;;;;11.00;6.38;;;;;;;9.54;61.74;101576.81;4954844;28;124649;-70
2022/11/05 05:45:06;;;;;;;12.52;6.78;;;;;;;9.53;61.89;101585.69;4962571;28;123558;-69
2022/11/05 05:47:33;;;;;;;10.80;6.60;;;;;;;9.51;61.90;101571.63;4967652;28;114200;-69
2022/11/05 05:50:00;;;;;;;11.13;6.70;;;;;;;9.51;61.98;101576.94;4960758;28;115480;-69
2022/11/05 05:52:27;;;;;;;9.55;6.32;;;;;;;9.50;61.74;101580.47;4963950;28;124506;-69
2022/11/05 05:54:54;;;;;;;10.60;6.95;;;;;;;9.48;61.84;101577.00;4951893;28;124187;-69
2022/11/05 05:57:21;;;;;;;14.52;6.68;;;;;;;9.46;61.55;101573.53;4958296;28;114685;-69
2022/11/05 05:59:48;;;;;;;11.20;6.78;;;;;;;9.46;61.70;101573.53;4958180;28;113985;-69
2022/11/05 06:02:15;;;;;;;12.50;7.53;;;;;;;9.43;61.96;101573.63;4974978;28;123914;-69
2022/11/05 06:04:42;;;;;;;12.45;7.20;;;;;;;9.39;61.87;101569.34;4961704;28;124435;-69
2022/11/05 06:07:09;;;;;;;14.85;7.00;;;;;;;9.38;61.86;101575.53;4964818;28;113354;-69
2022/11/05 06:09:36;;;;;;;12.55;7.25;;;;;;;9.37;61.77;101579.09;4957122;28;114438;-69
2022/11/05 06:12:03;;;;;;;13.77;8.00;;;;;;;9.35;61.64;101575.63;4961582;28;123605;-69
2022/11/05 06:14:30;;;;;;;16.88;7.55;;;;;;;9.35;61.77;101591.47;4963411;28;124393;-69
2022/11/05 06:16:57;;;;;;;13.68;7.03;;;;;;;9.34;62.13;101584.44;4975048;28;113728;-69
2022/11/05 06:19:25;;;;;;;15.57;7.30;;;;;;;9.32;61.72;101596.84;4954798;28;114215;-69
2022/11/05 06:21:52;;;;;;;12.38;7.38;;;;;;;9.31;61.76;101596.00;4956967;28;123826;-69
2022/11/05 06:24:19;;;;;;;14.95;7.50;;;;;;;9.30;62.12;101598.66;4956764;28;124755;-69
2022/11/05 06:26:46;;;;;;;14.43;7.00;;;;;;;9.29;61.64;101596.94;4963836;28;113072;-69
2022/11/05 06:29:13;;;;;;;15.45;8.18;;;;;;;9.27;61.80;101593.47;4973801;28;113198;-69
2022/11/05 06:31:40;;;;;;;16.05;7.82;;;;;;;9.26;61.91;101604.94;4951504;28;123812;-69
2022/11/05 06:34:07;;;;;;;12.73;7.75;;;;;;;9.26;61.83;101610.25;4946443;28;122706;-69
2022/11/05 06:36:34;;;;;;;13.15;7.82;;;;;;;9.26;61.75;101607.59;4963699;28;114214;-69
2022/11/05 06:39:01;;;;;;;16.77;8.65;;;;;;;9.24;62.09;101605.00;4956057;28;114877;-69
2022/11/05 06:41:28;;;;;;;18.08;8.43;;;;;;;9.24;61.73;101614.69;4956653;28;123755;-69
2022/11/05 06:43:55;;;;;;;12.48;7.80;;;;;;;9.22;61.99;101609.44;4962402;28;124529;-68
2022/11/05 06:46:22;;;;;;;15.07;8.45;;;;;;;9.21;61.98;101614.78;4955528;28;114785;-69
2022/11/05 06:48:49;;;;;;;18.08;8.15;;;;;;;9.21;62.20;101609.47;4961875;28;113920;-68
2022/11/05 06:51:16;;;;;;;12.77;8.40;;;;;;;9.20;61.90;101618.34;4963129;28;123453;-69
2022/11/05 06:53:44;;;;;;;13.15;8.65;;;;;;;9.19;61.86;101613.94;4962171;28;124573;-69
2022/11/05 06:56:11;;;;;;;16.30;9.30;;;;;;;9.19;62.16;101616.59;4955681;28;113970;-69
2022/11/05 06:58:38;;;;;;;13.38;8.52;;;;;;;9.20;61.89;101620.97;4960330;28;114623;-69
2022/11/05 07:01:07;;;;;;;13.10;8.57;;;;;;;9.19;62.11;101616.59;4960988;28;124694;-69
2022/11/05 07:03:37;;;;;;;15.80;8.75;;;;;;;9.18;62.13;101620.16;4960132;28;123223;-69
2022/11/05 07:06:05;;;;;;;16.02;8.48;;;;;;;9.18;62.15;101614.88;4962736;28;114367;-69
2022/11/05 07:08:34;;;;;;;14.45;8.77;;;;;;;9.18;61.94;101620.16;4961658;28;113637;-69
2022/11/05 07:11:02;;;;;;;17.23;8.85;;;;;;;9.19;62.29;101622.75;4960910;28;124271;-68
2022/11/05 07:13:29;;;;;;;15.27;8.25;;;;;;;9.19;61.88;101622.75;4955671;28;123545;-69
2022/11/05 07:15:56;;;;;;;15.00;7.82;;;;;;;9.20;62.19;101628.91;4963086;28;114410;-68
2022/11/05 07:18:23;;;;;;;14.20;7.72;;;;;;;9.19;62.18;101630.66;4961845;28;114064;-69
2022/11/05 07:20:50;;;;;;;16.23;7.50;;;;;;;9.20;62.15;101634.19;4963649;28;123730;-69
2022/11/05 07:23:17;;;;;;;17.30;7.70;;;;;;;9.22;62.05;101632.38;4964052;28;123755;-68
2022/11/05 07:25:44;;;;;;;13.68;7.80;;;;;;;9.23;62.24;101639.38;4965826;28;115188;-69
2022/11/05 07:28:13;;;;;;;14.07;8.13;;;;;;;9.25;62.06;101640.22;4958796;28;114739;-68
2022/11/05 07:30:40;;;;;;;18.00;9.15;;;;;;;9.26;62.40;101639.31;4966113;28;123841;-69
2022/11/05 07:33:08;;;;;;;14.30;8.20;;;;;;;9.28;62.35;101637.50;4958958;28;124449;-69
2022/11/05 07:35:35;;;;;;;13.93;8.23;;;;;;;9.31;62.07;101642.72;4951076;28;114093;-68
2022/11/05 07:38:02;;;;;;;16.30;8.32;;;;;;;9.32;62.24;101640.03;4957685;28;112967;-69
2022/11/05 07:40:30;;;;;;;13.80;8.32;;;;;;;9.35;62.19;101639.06;4955519;28;123176;-69
2022/11/05 07:43:00;;;;;;;11.98;7.65;;;;;;;9.38;62.40;101643.41;4979330;28;124556;-69
2022/11/05 07:45:30;;;;;;;14.40;7.97;;;;;;;9.42;62.38;101645.03;4965878;28;115678;-69
2022/11/05 07:48:02;;;;;;;15.68;8.07;;;;;;;9.46;62.09;101647.56;4960176;28;113767;-68
2022/11/05 07:50:32;;;;;;;14.70;8.35;;;;;;;9.48;62.22;101650.19;4949358;28;123269;-69
2022/11/05 07:53:08;;;;;;;13.88;8.82;;;;;;;9.50;62.47;101649.22;4968181;28;125877;-69
2022/11/05 07:55:36;;;;;;;16.67;8.82;;;;;;;9.53;62.45;101645.63;4959771;28;114299;-69
2022/11/05 07:58:03;;;;;;;14.23;8.75;;;;;;;9.57;62.34;101649.03;4961713;28;114313;-69
2022/11/05 08:00:31;;;;;;;12.73;8.30;;;;;;;9.60;62.42;101648.97;4961531;28;124070;-68
2022/11/05 08:03:01;;;;;;;13.65;8.05;;;;;;;9.63;62.16;101643.59;4963455;28;124162;-69
2022/11/05 08:05:36;;;;;;;14.85;7.65;;;;;;;9.68;62.87;101652.25;4961124;28;113725;-69
2022/11/05 08:08:04;;;;;;;11.77;7.13;;;;;;;9.72;62.30;101648.63;4959236;28;113853;-68
2022/11/05 08:10:32;;;;;;;13.35;7.35;;;;;;;9.77;62.40;101657.28;4960265;28;123900;-69
2022/11/05 08:13:00;;;;;;;12.48;7.63;;;;;;;9.80;62.37;101646.63;4963000;28;123807;-69
2022/11/05 08:15:27;;;;;;;11.35;7.47;;;;;;;9.86;62.41;101651.72;4965277;28;114288;-69
2022/11/05 08:17:58;;;;;;;14.80;7.63;;;;;;;9.91;62.30;101655.13;4958553;28;114914;-69
2022/11/05 08:20:26;;;;;;;14.07;7.13;;;;;;;9.96;62.45;101654.09;4962569;28;124903;-69
2022/11/05 08:22:53;;;;;;;12.90;7.80;;;;;;;10.00;62.58;101648.69;4965558;28;124375;-69
2022/11/05 08:25:20;;;;;;;13.07;7.10;;;;;;;10.07;62.52;101654.66;4960771;28;114354;-69
2022/11/05 08:28:04;;;;;;;13.38;6.78;;;;;;;10.10;62.43;101654.59;4963800;28;113722;-69
2022/11/05 08:30:31;;;;;;;14.20;7.88;;;;;;;10.16;62.69;101657.03;4960561;28;124311;-67
2022/11/05 08:33:04;;;;;;;13.30;7.22;;;;;;;10.22;62.51;101654.19;4963350;28;123024;-68
2022/11/05 08:35:33;;;;;;;12.50;7.05;;;;;;;10.27;62.50;101662.88;4968905;28;114225;-68
2022/11/05 08:38:03;;;;;;;12.10;7.35;;;;;;;10.31;62.69;101648.66;4970486;28;111756;-68
2022/11/05 08:40:32;;;;;;;14.38;7.50;;;;;;;10.38;62.53;101664.34;4963272;28;124139;-68
2022/11/05 08:43:02;;;;;;;13.48;7.47;;;;;;;10.45;62.69;101661.47;4979551;28;123573;-68
2022/11/05 08:45:30;;;;;;;13.02;7.50;;;;;;;10.51;62.84;101657.78;4964286;28;115279;-68
2022/11/05 08:48:01;;;;;;;15.60;7.07;;;;;;;10.57;62.61;101660.22;4956403;28;113812;-68
2022/11/05 08:50:28;;;;;;;9.65;6.68;;;;;;;10.64;62.57;101645.88;4955947;28;125012;-68
2022/11/05 08:52:56;;;;;;;13.63;6.82;;;;;;;10.70;62.68;101650.97;4958538;28;123860;-68
2022/11/05 08:55:23;;;;;;;12.15;6.80;;;;;;;10.76;62.73;101655.19;4956263;28;113954;-67
2022/11/05 08:57:58;;;;;;;10.23;7.05;;;;;;;10.83;62.64;101662.03;4965486;28;114161;-68
2022/11/05 09:00:26;;;;;;;11.90;7.35;;;;;;;10.90;62.45;101667.97;4965509;28;123750;-68
2022/11/05 09:02:54;;;;;;;14.60;7.05;;;;;;;10.99;62.49;101665.03;4981311;28;123183;-68
2022/11/05 09:05:21;;;;;;;13.13;7.10;;;;;;;11.07;62.58;101665.63;4956601;28;115302;-68
2022/11/05 09:07:48;;;;;;;11.90;7.05;;;;;;;11.16;62.76;101668.88;4965933;28;114658;-68
2022/11/05 09:10:15;;;;;;;11.07;6.95;;;;;;;11.24;62.66;101664.19;4964799;28;123251;-68
2022/11/05 09:12:42;;;;;;;10.07;6.82;;;;;;;11.33;62.42;101666.50;4974563;28;122852;-68
2022/11/05 09:15:10;;;;;;;15.95;8.27;;;;;;;11.41;62.62;101669.75;4960055;28;114479;-68
2022/11/05 09:17:37;;;;;;;16.02;7.20;;;;;;;11.50;62.51;101669.44;4966337;28;114567;-68
2022/11/05 09:20:06;;;;;;;13.25;7.03;;;;;;;11.57;62.33;101658.63;4963876;28;123894;-68
2022/11/05 09:22:33;;;;;;;13.25;6.90;;;;;;;11.64;62.40;101668.06;4963143;28;123589;-68
2022/11/05 09:25:07;;;;;;;11.85;6.80;;;;;;;11.72;62.35;101673.13;4964805;28;114365;-68
2022/11/05 09:27:34;;;;;;;15.30;7.32;;;;;;;11.79;62.27;101674.59;4973341;28;113229;-68
2022/11/05 09:30:02;;;;;;;10.50;6.50;;;;;;;11.85;62.13;101675.25;4961024;28;124204;-68
2022/11/05 09:32:30;;;;;;;12.02;7.10;;;;;;;11.95;61.95;101669.66;4968284;28;124735;-68
2022/11/05 09:34:59;;;;;;;13.25;6.65;;;;;;;12.01;62.01;101669.41;4968420;28;114421;-68
2022/11/05 09:37:27;;;;;;;11.35;6.72;;;;;;;12.10;62.14;101679.69;4967846;28;112924;-68
2022/11/05 09:39:54;;;;;;;12.85;6.50;;;;;;;12.19;62.03;101681.97;4970030;28;123959;-68
2022/11/05 09:42:28;;;;;;;12.82;6.57;;;;;;;12.27;61.83;101682.53;4970271;28;122843;-68
2022/11/05 09:45:01;;;;;;;10.40;6.18;;;;;;;12.37;61.83;101682.19;4973545;28;114367;-68
2022/11/05 09:47:38;;;;;;;13.50;6.45;;;;;;;12.45;61.71;101686.28;4968845;28;113673;-68
2022/11/05 09:50:13;;;;;;;14.52;6.80;;;;;;;12.52;61.66;101676.28;4970445;28;123611;-67
2022/11/05 09:52:40;;;;;;;11.75;6.43;;;;;;;12.60;61.54;101690.13;4986025;28;124424;-68
2022/11/05 09:55:22;;;;;;;12.88;6.57;;;;;;;12.66;61.30;101684.56;4969981;28;114452;-68
2022/11/05 09:58:03;;;;;;;11.02;6.50;;;;;;;12.74;61.20;101696.69;4970804;28;114380;-68
2022/11/05 10:00:31;;;;;;;9.38;5.72;;;;;;;12.81;61.10;101698.16;4971019;28;124162;-68
2022/11/05 10:03:13;;;;;;;9.70;6.28;;;;;;;12.88;61.03;101704.94;4974118;28;124383;-68
2022/11/05 10:05:41;;;;;;;10.80;6.13;;;;;;;12.92;60.80;101695.94;4971269;28;114073;-68
2022/11/05 10:08:17;;;;;;;10.43;6.35;;;;;;;12.99;60.74;101701.84;4972819;28;114262;-68
2022/11/05 10:10:48;;;;;;;13.18;6.07;;;;;;;13.07;60.85;101698.88;4966760;28;124736;-68
2022/11/05 10:13:37;;;;;;;11.68;6.30;;;;;;;13.15;60.63;101696.78;4953340;28;123842;-68
2022/11/05 10:16:22;;;;;;;10.77;6.07;;;;;;;13.20;60.51;101700.97;4968877;28;114578;-68
2022/11/05 10:18:59;;;;;;;13.07;6.15;;;;;;;13.26;60.64;101699.84;4968016;28;114054;-68
2022/11/05 10:21:26;;;;;;;11.00;6.30;;;;;;;13.34;60.50;101705.72;4967234;28;124418;-68
2022/11/05 10:24:18;;;;;;;11.77;5.95;;;;;;;13.43;60.50;101718.63;4970245;28;122818;-68
2022/11/05 10:26:49;;;;;;;10.68;5.72;;;;;;;13.52;60.15;101705.84;4970329;28;115007;-68
2022/11/05 10:29:28;;;;;;;11.50;5.60;;;;;;;13.61;60.27;101710.78;4968690;28;113140;-68
2022/11/05 10:32:01;;;;;;;10.10;5.47;;;;;;;13.71;60.31;101717.44;4970993;28;124190;-69
2022/11/05 10:34:32;;;;;;;9.80;5.47;;;;;;;13.81;60.08;101713.44;4954860;28;124531;-68
2022/11/05 10:36:59;;;;;;;7.85;4.88;;;;;;;13.89;59.88;101709.56;4968275;28;114481;-69
2022/11/05 10:39:30;;;;;;;11.77;4.93;;;;;;;13.96;59.68;101708.34;4971636;28;112689;-69
2022/11/05 10:42:28;;;;;;;8.88;4.88;;;;;;;14.02;59.50;101705.41;4977232;28;126209;-69
2022/11/05 10:45:28;;;;;;;7.30;4.65;;;;;;;14.09;59.61;101701.53;4967440;28;123564;-69
2022/11/05 10:48:15;;;;;;;8.40;5.20;;;;;;;14.16;59.20;101702.94;4968277;28;114435;-68
2022/11/05 10:50:43;;;;;;;9.60;5.10;;;;;;;14.23;59.23;101710.69;4968015;28;114818;-68
2022/11/05 10:53:12;;;;;;;10.40;5.63;;;;;;;14.28;59.12;101705.97;4984460;28;124085;-69
2022/11/05 10:55:45;;;;;;;11.88;5.28;;;;;;;14.36;59.20;101710.03;4970134;28;122732;-68
2022/11/05 10:58:11;;;;;;;9.63;5.40;;;;;;;14.45;59.06;101714.06;4967529;28;114150;-68
2022/11/05 11:00:39;;;;;;;8.05;5.20;;;;;;;14.52;58.82;101715.50;4969353;28;114497;-68
2022/11/05 11:03:33;;;;;;;10.35;5.18;;;;;;;14.57;58.67;101712.66;4967898;28;123006;-68
2022/11/05 11:06:23;;;;;;;9.05;5.43;;;;;;;14.62;58.52;101699.97;4957546;28;124901;-69
2022/11/05 11:08:54;;;;;;;8.50;5.07;;;;;;;14.67;58.23;101702.41;4949559;28;115200;-68
2022/11/05 11:11:34;;;;;;;7.97;5.07;;;;;;;14.70;58.23;101699.59;4962393;28;114229;-68
2022/11/05 11:14:05;;;;;;;11.00;4.80;;;;;;;14.74;58.29;101709.16;4956013;28;124531;-68
2022/11/05 11:16:36;;;;;;;9.50;4.57;;;;;;;14.78;58.18;101716.06;4967176;28;124294;-68
2022/11/05 11:19:19;;;;;;;9.43;5.10;;;;;;;14.83;57.86;101705.19;4946469;28;114620;-69
2022/11/05 11:22:18;;;;;;;7.22;4.10;;;;;;;14.84;57.62;101710.44;4963490;28;113982;-68
2022/11/05 11:24:48;;;;;;;8.38;4.25;;;;;;;14.86;57.67;101713.91;4971843;28;123998;-68
2022/11/05 11:27:31;;;;;;;6.72;4.05;;;;;;;14.88;57.38;101709.38;4965780;28;125769;-68
2022/11/05 11:30:03;;;;;;;8.05;4.28;;;;;;;14.90;57.29;101704.81;4966265;28;114016;-69
2022/11/05 11:32:36;;;;;;;6.45;3.95;;;;;;;14.92;57.28;101697.59;4969767;28;114187;-68
2022/11/05 11:35:05;;;;;;;5.85;4.18;;;;;;;14.95;57.32;101702.75;4966760;28;123998;-68
2022/11/05 11:37:40;;;;;;;9.13;4.50;;;;;;;14.98;57.07;101697.28;4955612;28;123767;-68
2022/11/05 11:40:16;;;;;;;9.40;4.60;;;;;;;15.01;57.11;101706.06;4966654;28;115566;-68
2022/11/05 11:42:46;;;;;;;7.93;4.45;;;;;;;15.04;56.95;101705.94;4966864;28;115559;-68
2022/11/05 11:45:27;;;;;;;6.40;4.53;;;;;;;15.05;57.01;101694.31;4968668;28;123884;-68
2022/11/05 11:47:55;;;;;;;8.75;4.15;;;;;;;15.07;56.87;101700.44;4967477;28;123867;-68
2022/11/05 11:50:41;;;;;;;9.48;4.60;;;;;;;15.10;56.77;101694.94;4968599;28;114002;-68
2022/11/05 11:53:20;;;;;;;8.27;4.30;;;;;;;15.14;56.87;101692.06;4967416;28;113070;-68
2022/11/05 11:55:53;;;;;;;7.50;4.30;;;;;;;15.15;56.57;101693.78;4966778;28;123967;-68
2022/11/05 11:58:22;;;;;;;10.80;5.32;;;;;;;15.14;56.40;101702.75;4970323;28;124843;-69
2022/11/05 12:01:01;;;;;;;7.95;4.75;;;;;;;15.13;56.40;101694.81;4969774;28;114408;-68
2022/11/05 12:03:36;;;;;;;10.48;4.80;;;;;;;15.16;56.36;101699.97;4968861;28;114104;-68
2022/11/05 12:06:22;;;;;;;7.38;4.75;;;;;;;15.21;56.42;101707.75;4966974;28;123577;-68
2022/11/05 12:09:30;;;;;;;9.18;5.07;;;;;;;15.22;56.37;101709.47;4977210;28;121794;-68
2022/11/05 12:12:05;;;;;;;10.75;4.88;;;;;;;15.22;56.28;101709.47;4954739;28;113719;-68
2022/11/05 12:14:42;;;;;;;9.40;4.90;;;;;;;15.20;56.27;101706.91;4953774;28;112863;-68
2022/11/05 12:17:33;;;;;;;9.55;4.95;;;;;;;15.21;56.01;101702.41;4962644;28;124546;-68
2022/11/05 12:20:19;;;;;;;8.80;4.95;;;;;;;15.20;56.12;101690.88;4968422;28;124389;-69